createdAt,value
2018-09-30T00:00:50.517Z,999.22
2018-09-30T00:01:50.605Z,999.18
2018-09-30T00:02:50.691Z,999.22
2018-09-30T00:03:50.773Z,999.16
2018-09-30T00:04:50.869Z,999.15
2018-09-30T00:05:59.616Z,999.13
2018-09-30T00:06:51.081Z,999.11
2018-09-30T00:07:51.172Z,999.11
2018-09-30T00:08:51.257Z,999.15
2018-09-30T00:09:51.347Z,999.17
2018-09-30T00:10:51.437Z,999.14
2018-09-30T00:11:51.525Z,999.16
2018-09-30T00:12:51.615Z,999.19
2018-09-30T00:13:51.703Z,999.15
2018-09-30T00:14:51.793Z,999.16
2018-09-30T00:15:51.886Z,999.10
2018-09-30T00:16:51.972Z,999.13
2018-09-30T00:17:52.055Z,999.07
2018-09-30T00:18:52.146Z,999.04
2018-09-30T00:19:52.234Z,999.01
2018-09-30T00:20:52.324Z,998.99
2018-09-30T00:21:52.409Z,998.99
2018-09-30T00:22:52.498Z,999.01
2018-09-30T00:23:52.587Z,999.02
2018-09-30T00:24:52.672Z,999.03
2018-09-30T00:25:52.761Z,999.07
2018-09-30T00:26:52.855Z,999.05
2018-09-30T00:27:52.939Z,998.98
2018-09-30T00:28:53.028Z,999.07
2018-09-30T00:29:53.122Z,999.05
2018-09-30T00:30:53.205Z,999.04
2018-09-30T00:31:53.293Z,999.07
2018-09-30T00:32:53.382Z,999.08
2018-09-30T00:33:53.470Z,999.08
2018-09-30T00:34:53.557Z,999.09
2018-09-30T00:35:53.649Z,999.08
2018-09-30T00:36:53.752Z,999.06
2018-09-30T00:37:53.826Z,999.07
2018-09-30T00:38:53.918Z,999.04
2018-09-30T00:39:54.007Z,999.00
2018-09-30T00:40:54.092Z,998.99
2018-09-30T00:41:54.181Z,999.00
2018-09-30T00:42:54.269Z,998.96
2018-09-30T00:43:54.357Z,998.92
2018-09-30T00:44:54.443Z,998.87
2018-09-30T00:45:54.532Z,998.86
2018-09-30T00:46:54.623Z,998.87
2018-09-30T00:47:54.708Z,998.82
2018-09-30T00:48:54.795Z,998.85
2018-09-30T00:49:54.895Z,998.88
2018-09-30T00:50:54.982Z,998.86
2018-09-30T00:51:55.070Z,998.87
2018-09-30T00:52:55.158Z,998.84
2018-09-30T00:53:55.247Z,998.84
2018-09-30T00:54:55.337Z,998.80
2018-09-30T00:55:55.422Z,998.85
2018-09-30T00:56:55.510Z,998.83
2018-09-30T00:57:55.597Z,998.82
2018-09-30T00:58:55.691Z,998.86
2018-09-30T00:59:55.777Z,998.84
2018-09-30T01:00:55.864Z,998.90
2018-09-30T01:01:55.953Z,998.89
2018-09-30T01:02:56.039Z,998.84
2018-09-30T01:03:56.127Z,998.86
2018-09-30T01:04:56.218Z,998.84
2018-09-30T01:05:56.306Z,998.79
2018-09-30T01:06:56.414Z,998.77
2018-09-30T01:07:56.495Z,998.72
2018-09-30T01:08:56.585Z,998.71
2018-09-30T01:09:56.670Z,998.79
2018-09-30T01:10:56.761Z,998.76
2018-09-30T01:11:56.844Z,998.75
2018-09-30T01:12:56.933Z,998.71
2018-09-30T01:13:57.025Z,998.62
2018-09-30T01:14:57.109Z,998.64
2018-09-30T01:15:57.243Z,998.64
2018-09-30T01:16:57.286Z,998.65
2018-09-30T01:17:57.371Z,998.70
2018-09-30T01:18:57.457Z,998.65
2018-09-30T01:19:57.546Z,998.63
2018-09-30T01:20:57.637Z,998.68
2018-09-30T01:21:57.719Z,998.70
2018-09-30T01:22:57.809Z,998.75
2018-09-30T01:23:57.897Z,998.73
2018-09-30T01:24:57.986Z,998.72
2018-09-30T01:25:58.069Z,998.68
2018-09-30T01:26:58.163Z,998.66
2018-09-30T01:27:58.251Z,998.67
2018-09-30T01:28:58.335Z,998.64
2018-09-30T01:29:58.423Z,998.63
2018-09-30T01:30:58.508Z,998.63
2018-09-30T01:31:58.599Z,998.61
2018-09-30T01:32:58.692Z,998.64
2018-09-30T01:33:58.782Z,998.60
2018-09-30T01:34:58.870Z,998.59
2018-09-30T01:35:58.955Z,998.59
2018-09-30T01:36:59.041Z,998.56
2018-09-30T01:37:59.132Z,998.57
2018-09-30T01:38:59.214Z,998.51
2018-09-30T01:39:59.306Z,998.51
2018-09-30T01:40:59.396Z,998.49
2018-09-30T01:41:59.484Z,998.48
2018-09-30T01:42:59.572Z,998.50
2018-09-30T01:43:59.663Z,998.50
2018-09-30T01:44:59.745Z,998.46
2018-09-30T01:45:59.831Z,998.47
2018-09-30T01:46:59.916Z,998.45
2018-09-30T01:48:00.004Z,998.45
2018-09-30T01:49:00.095Z,998.45
2018-09-30T01:50:00.185Z,998.42
2018-09-30T01:51:00.271Z,998.41
2018-09-30T01:52:00.362Z,998.42
2018-09-30T01:53:00.454Z,998.36
2018-09-30T01:54:00.540Z,998.38
2018-09-30T01:55:00.629Z,998.38
2018-09-30T01:56:00.718Z,998.42
2018-09-30T01:57:00.804Z,998.36
2018-09-30T01:58:00.889Z,998.34
2018-09-30T01:59:00.979Z,998.29
2018-09-30T02:00:01.063Z,998.30
2018-09-30T02:01:01.156Z,998.23
2018-09-30T02:02:01.244Z,998.17
2018-09-30T02:03:01.341Z,998.21
2018-09-30T02:04:01.424Z,998.16
2018-09-30T02:05:01.517Z,998.15
2018-09-30T02:06:01.598Z,998.15
2018-09-30T02:07:01.691Z,998.14
2018-09-30T02:08:01.780Z,998.09
2018-09-30T02:09:01.864Z,998.09
2018-09-30T02:10:01.951Z,998.04
2018-09-30T02:11:02.041Z,998.02
2018-09-30T02:12:02.126Z,998.05
2018-09-30T02:13:02.217Z,998.02
2018-09-30T02:14:02.310Z,998.01
2018-09-30T02:15:02.393Z,998.02
2018-09-30T02:16:02.482Z,997.98
2018-09-30T02:17:02.565Z,997.98
2018-09-30T02:18:02.653Z,998.00
2018-09-30T02:19:02.742Z,997.98
2018-09-30T02:20:02.828Z,997.99
2018-09-30T02:21:02.923Z,997.96
2018-09-30T02:22:03.009Z,997.97
2018-09-30T02:23:03.096Z,997.95
2018-09-30T02:24:03.184Z,997.95
2018-09-30T02:25:03.268Z,997.95
2018-09-30T02:26:03.360Z,997.94
2018-09-30T02:27:03.444Z,997.92
2018-09-30T02:28:03.533Z,997.91
2018-09-30T02:29:03.622Z,997.92
2018-09-30T02:30:03.708Z,997.89
2018-09-30T02:31:03.799Z,997.93
2018-09-30T02:32:03.884Z,997.90
2018-09-30T02:33:03.974Z,997.89
2018-09-30T02:34:04.066Z,997.82
2018-09-30T02:35:04.154Z,997.84
2018-09-30T02:36:04.239Z,997.79
2018-09-30T02:37:04.325Z,997.80
2018-09-30T02:38:04.411Z,997.78
2018-09-30T02:39:04.494Z,997.76
2018-09-30T02:40:04.593Z,997.81
2018-09-30T02:41:04.679Z,997.78
2018-09-30T02:42:04.771Z,997.79
2018-09-30T02:43:04.855Z,997.79
2018-09-30T02:44:04.943Z,997.79
2018-09-30T02:45:05.031Z,997.77
2018-09-30T02:46:05.121Z,997.72
2018-09-30T02:47:05.203Z,997.74
2018-09-30T02:48:05.289Z,997.74
2018-09-30T02:49:05.376Z,997.76
2018-09-30T02:50:05.464Z,997.73
2018-09-30T02:51:05.546Z,997.72
2018-09-30T02:52:05.632Z,997.72
2018-09-30T02:53:05.716Z,997.73
2018-09-30T02:54:05.805Z,997.70
2018-09-30T02:55:05.894Z,997.74
2018-09-30T02:56:05.983Z,997.72
2018-09-30T02:57:06.072Z,997.68
2018-09-30T02:58:06.164Z,997.67
2018-09-30T02:59:06.246Z,997.67
2018-09-30T03:00:06.339Z,997.62
2018-09-30T03:01:06.428Z,997.63
2018-09-30T03:02:06.516Z,997.60
2018-09-30T03:03:06.603Z,997.62
2018-09-30T03:04:06.698Z,997.53
2018-09-30T03:05:06.787Z,997.51
2018-09-30T03:06:06.873Z,997.50
2018-09-30T03:07:06.961Z,997.53
2018-09-30T03:08:07.050Z,997.48
2018-09-30T03:09:07.140Z,997.45
2018-09-30T03:10:07.234Z,997.44
2018-09-30T03:11:07.322Z,997.46
2018-09-30T03:12:07.411Z,997.46
2018-09-30T03:13:07.499Z,997.44
2018-09-30T03:14:07.584Z,997.46
2018-09-30T03:15:07.671Z,997.45
2018-09-30T03:16:07.764Z,997.38
2018-09-30T03:17:07.853Z,997.37
2018-09-30T03:18:07.938Z,997.41
2018-09-30T03:19:08.030Z,997.40
2018-09-30T03:20:08.116Z,997.39
2018-09-30T03:21:08.205Z,997.39
2018-09-30T03:22:08.295Z,997.38
2018-09-30T03:23:08.383Z,997.34
2018-09-30T03:24:08.475Z,997.36
2018-09-30T03:25:08.558Z,997.37
2018-09-30T03:26:08.648Z,997.34
2018-09-30T03:27:08.736Z,997.32
2018-09-30T03:28:08.825Z,997.34
2018-09-30T03:29:08.916Z,997.31
2018-09-30T03:30:08.997Z,997.32
2018-09-30T03:31:09.085Z,997.26
2018-09-30T03:32:09.176Z,997.27
2018-09-30T03:33:09.263Z,997.27
2018-09-30T03:34:09.350Z,997.23
2018-09-30T03:35:09.438Z,997.24
2018-09-30T03:36:09.526Z,997.21
2018-09-30T03:37:09.610Z,997.23
2018-09-30T03:38:09.708Z,997.18
2018-09-30T03:39:09.794Z,997.17
2018-09-30T03:40:09.887Z,997.18
2018-09-30T03:41:09.992Z,997.12
2018-09-30T03:42:10.077Z,997.14
2018-09-30T03:43:10.166Z,997.12
2018-09-30T03:44:10.251Z,997.12
2018-09-30T03:45:10.339Z,997.11
2018-09-30T03:46:10.435Z,997.11
2018-09-30T03:47:10.518Z,997.10
2018-09-30T03:48:10.609Z,997.06
2018-09-30T03:49:10.694Z,997.08
2018-09-30T03:50:10.783Z,997.11
2018-09-30T03:51:10.869Z,997.07
2018-09-30T03:52:10.960Z,997.09
2018-09-30T03:53:11.051Z,997.04
2018-09-30T03:54:11.130Z,997.02
2018-09-30T03:55:11.218Z,997.03
2018-09-30T03:56:11.304Z,997.07
2018-09-30T03:57:11.392Z,997.04
2018-09-30T03:58:11.480Z,997.08
2018-09-30T03:59:11.574Z,997.08
2018-09-30T04:00:11.661Z,997.07
2018-09-30T04:01:11.750Z,997.12
2018-09-30T04:02:11.833Z,997.08
2018-09-30T04:03:11.933Z,997.10
2018-09-30T04:04:12.018Z,997.09
2018-09-30T04:05:12.105Z,997.05
2018-09-30T04:06:12.180Z,997.04
2018-09-30T04:07:12.277Z,997.04
2018-09-30T04:08:12.368Z,997.02
2018-09-30T04:09:12.456Z,997.04
2018-09-30T04:10:12.652Z,997.02
2018-09-30T04:11:12.635Z,996.96
2018-09-30T04:12:12.745Z,996.97
2018-09-30T04:13:12.829Z,996.99
2018-09-30T04:14:12.917Z,996.97
2018-09-30T04:15:13.006Z,996.94
2018-09-30T04:16:13.093Z,996.94
2018-09-30T04:17:13.208Z,996.90
2018-09-30T04:18:13.269Z,996.91
2018-09-30T04:19:13.352Z,996.90
2018-09-30T04:20:13.442Z,996.93
2018-09-30T04:21:13.532Z,996.96
2018-09-30T04:22:13.616Z,996.95
2018-09-30T04:23:13.707Z,996.91
2018-09-30T04:24:13.797Z,996.95
2018-09-30T04:25:13.894Z,996.92
2018-09-30T04:26:13.972Z,996.96
2018-09-30T04:27:14.059Z,996.97
2018-09-30T04:28:14.152Z,996.94
2018-09-30T04:29:14.238Z,996.96
2018-09-30T04:30:14.324Z,996.95
2018-09-30T04:31:14.414Z,996.98
2018-09-30T04:32:14.499Z,996.97
2018-09-30T04:33:14.668Z,996.93
2018-09-30T04:34:14.674Z,996.98
2018-09-30T04:35:14.765Z,996.99
2018-09-30T04:36:14.848Z,996.97
2018-09-30T04:37:14.939Z,996.97
2018-09-30T04:38:15.026Z,996.96
2018-09-30T04:39:15.122Z,996.96
2018-09-30T04:40:15.204Z,996.93
2018-09-30T04:41:15.287Z,996.95
2018-09-30T04:42:15.383Z,996.94
2018-09-30T04:43:15.466Z,996.93
2018-09-30T04:44:15.554Z,996.97
2018-09-30T04:45:15.638Z,996.97
2018-09-30T04:46:15.725Z,996.98
2018-09-30T04:47:15.817Z,996.94
2018-09-30T04:48:15.901Z,996.90
2018-09-30T04:49:15.988Z,996.91
2018-09-30T04:50:16.072Z,996.94
2018-09-30T04:51:16.161Z,996.93
2018-09-30T04:52:16.250Z,996.90
2018-09-30T04:53:16.336Z,996.94
2018-09-30T04:54:16.425Z,996.94
2018-09-30T04:55:16.522Z,996.93
2018-09-30T04:56:16.609Z,996.90
2018-09-30T04:57:16.696Z,996.85
2018-09-30T04:58:16.787Z,996.88
2018-09-30T04:59:16.872Z,996.84
2018-09-30T05:00:16.960Z,996.81
2018-09-30T05:01:17.045Z,996.83
2018-09-30T05:02:17.135Z,996.80
2018-09-30T05:03:17.229Z,996.78
2018-09-30T05:04:17.309Z,996.77
2018-09-30T05:05:17.396Z,996.79
2018-09-30T05:06:17.481Z,996.78
2018-09-30T05:07:17.570Z,996.79
2018-09-30T05:08:17.655Z,996.75
2018-09-30T05:09:17.745Z,996.77
2018-09-30T05:10:17.829Z,996.72
2018-09-30T05:11:17.920Z,996.74
2018-09-30T05:12:18.009Z,996.74
2018-09-30T05:13:18.095Z,996.74
2018-09-30T05:14:18.183Z,996.78
2018-09-30T05:15:18.270Z,996.74
2018-09-30T05:16:18.411Z,996.79
2018-09-30T05:17:18.439Z,996.76
2018-09-30T05:18:18.530Z,996.76
2018-09-30T05:19:18.620Z,996.78
2018-09-30T05:20:18.709Z,996.76
2018-09-30T05:21:18.793Z,996.77
2018-09-30T05:22:18.880Z,996.72
2018-09-30T05:23:18.968Z,996.72
2018-09-30T05:24:19.057Z,996.72
2018-09-30T05:25:19.142Z,996.74
2018-09-30T05:26:19.233Z,996.72
2018-09-30T05:27:19.316Z,996.74
2018-09-30T05:28:19.409Z,996.74
2018-09-30T05:29:19.499Z,996.71
2018-09-30T05:30:19.586Z,996.70
2018-09-30T05:31:19.701Z,996.72
2018-09-30T05:32:19.764Z,996.72
2018-09-30T05:33:19.856Z,996.74
2018-09-30T05:34:19.936Z,996.68
2018-09-30T05:35:20.028Z,996.67
2018-09-30T05:36:20.116Z,996.66
2018-09-30T05:37:20.241Z,996.70
2018-09-30T05:38:20.303Z,996.70
2018-09-30T05:39:20.392Z,996.71
2018-09-30T05:40:20.479Z,996.74
2018-09-30T05:41:20.570Z,996.72
2018-09-30T05:42:20.660Z,996.70
2018-09-30T05:43:20.741Z,996.72
2018-09-30T05:44:20.824Z,996.71
2018-09-30T05:45:20.914Z,996.73
2018-09-30T05:46:21.007Z,996.75
2018-09-30T05:47:21.083Z,996.74
2018-09-30T05:48:21.172Z,996.73
2018-09-30T05:49:21.258Z,996.74
2018-09-30T05:50:21.348Z,996.77
2018-09-30T05:51:21.434Z,996.73
2018-09-30T05:52:21.519Z,996.70
2018-09-30T05:53:21.613Z,996.77
2018-09-30T05:54:21.701Z,996.84
2018-09-30T05:55:21.787Z,996.80
2018-09-30T05:56:21.878Z,996.82
2018-09-30T05:57:21.991Z,996.83
2018-09-30T05:58:22.044Z,996.87
2018-09-30T05:59:22.133Z,996.84
2018-09-30T06:00:22.226Z,996.83
2018-09-30T06:01:22.308Z,996.85
2018-09-30T06:02:22.396Z,996.83
2018-09-30T06:03:22.476Z,996.84
2018-09-30T06:04:22.560Z,996.84
2018-09-30T06:05:22.650Z,996.84
2018-09-30T06:06:32.424Z,996.83
2018-09-30T06:07:22.763Z,996.81
2018-09-30T06:08:22.861Z,996.81
2018-09-30T06:09:22.982Z,996.74
2018-09-30T06:10:23.029Z,996.78
2018-09-30T06:11:23.116Z,996.73
2018-09-30T06:12:23.202Z,996.73
2018-09-30T06:13:23.290Z,996.73
2018-09-30T06:14:23.381Z,996.72
2018-09-30T06:15:23.466Z,996.72
2018-09-30T06:16:23.555Z,996.70
2018-09-30T06:17:23.641Z,996.69
2018-09-30T06:18:23.724Z,996.71
2018-09-30T06:19:23.816Z,996.67
2018-09-30T06:20:23.904Z,996.68
2018-09-30T06:21:23.994Z,996.70
2018-09-30T06:22:24.080Z,996.69
2018-09-30T06:23:24.168Z,996.74
2018-09-30T06:24:24.257Z,996.75
2018-09-30T06:25:24.344Z,996.74
2018-09-30T06:26:24.435Z,996.71
2018-09-30T06:27:24.522Z,996.69
2018-09-30T06:28:24.612Z,996.65
2018-09-30T06:29:24.700Z,996.52
2018-09-30T06:30:24.792Z,996.54
2018-09-30T06:31:24.872Z,996.53
2018-09-30T06:32:24.963Z,996.57
2018-09-30T06:33:25.053Z,996.54
2018-09-30T06:34:25.145Z,996.57
2018-09-30T06:35:25.241Z,996.53
2018-09-30T06:36:25.332Z,996.51
2018-09-30T06:37:25.418Z,996.52
2018-09-30T06:38:25.510Z,996.45
2018-09-30T06:39:25.595Z,996.45
2018-09-30T06:40:25.699Z,996.42
2018-09-30T06:41:25.771Z,996.44
2018-09-30T06:42:25.859Z,996.48
2018-09-30T06:43:25.954Z,996.55
2018-09-30T06:44:26.045Z,996.55
2018-09-30T06:45:26.181Z,996.55
2018-09-30T06:46:26.217Z,996.56
2018-09-30T06:47:26.303Z,996.60
2018-09-30T06:48:26.398Z,996.58
2018-09-30T06:49:26.489Z,996.58
2018-09-30T06:50:26.586Z,996.57
2018-09-30T06:51:26.674Z,996.57
2018-09-30T06:52:26.768Z,996.58
2018-09-30T06:53:26.858Z,996.57
2018-09-30T06:54:26.945Z,996.61
2018-09-30T06:55:27.032Z,996.58
2018-09-30T06:56:27.120Z,996.57
2018-09-30T06:57:27.209Z,996.53
2018-09-30T06:58:27.297Z,996.50
2018-09-30T06:59:27.385Z,996.46
2018-09-30T07:00:27.472Z,996.42
2018-09-30T07:01:27.560Z,996.41
2018-09-30T07:02:27.648Z,996.43
2018-09-30T07:03:27.742Z,996.49
2018-09-30T07:04:27.828Z,996.49
2018-09-30T07:05:27.916Z,996.45
2018-09-30T07:06:27.997Z,996.50
2018-09-30T07:07:28.096Z,996.43
2018-09-30T07:08:28.171Z,996.41
2018-09-30T07:09:28.263Z,996.47
2018-09-30T07:10:28.352Z,996.44
2018-09-30T07:11:28.438Z,996.46
2018-09-30T07:12:28.527Z,996.44
2018-09-30T07:13:28.615Z,996.41
2018-09-30T07:14:28.707Z,996.44
2018-09-30T07:15:28.798Z,996.44
2018-09-30T07:16:28.885Z,996.40
2018-09-30T07:17:28.975Z,996.41
2018-09-30T07:18:29.061Z,996.38
2018-09-30T07:19:29.151Z,996.38
2018-09-30T07:20:29.245Z,996.37
2018-09-30T07:21:29.337Z,996.37
2018-09-30T07:22:29.428Z,996.33
2018-09-30T07:23:29.516Z,996.31
2018-09-30T07:24:29.602Z,996.29
2018-09-30T07:25:29.691Z,996.29
2018-09-30T07:26:29.780Z,996.26
2018-09-30T07:27:29.875Z,996.27
2018-09-30T07:28:29.962Z,996.26
2018-09-30T07:29:30.050Z,996.24
2018-09-30T07:30:30.141Z,996.23
2018-09-30T07:31:30.230Z,996.28
2018-09-30T07:32:30.323Z,996.29
2018-09-30T07:33:30.407Z,996.30
2018-09-30T07:34:30.502Z,996.31
2018-09-30T07:35:30.591Z,996.29
2018-09-30T07:36:30.678Z,996.22
2018-09-30T07:37:30.769Z,996.21
2018-09-30T07:38:30.855Z,996.21
2018-09-30T07:39:30.951Z,996.22
2018-09-30T07:40:31.029Z,996.23
2018-09-30T07:41:31.120Z,996.25
2018-09-30T07:42:31.214Z,996.21
2018-09-30T07:43:31.298Z,996.19
2018-09-30T07:44:31.389Z,996.21
2018-09-30T07:45:31.489Z,996.20
2018-09-30T07:46:31.589Z,996.19
2018-09-30T07:47:31.667Z,996.16
2018-09-30T07:48:31.757Z,996.16
2018-09-30T07:49:31.844Z,996.15
2018-09-30T07:50:31.939Z,996.16
2018-09-30T07:51:32.023Z,996.17
2018-09-30T07:52:32.164Z,996.12
2018-09-30T07:53:32.198Z,996.14
2018-09-30T07:54:32.287Z,996.12
2018-09-30T07:55:32.378Z,996.10
2018-09-30T07:56:32.469Z,996.09
2018-09-30T07:57:32.561Z,996.06
2018-09-30T07:58:32.636Z,996.05
2018-09-30T07:59:32.724Z,996.05
2018-09-30T08:00:32.812Z,996.03
2018-09-30T08:01:32.902Z,996.07
2018-09-30T08:02:32.993Z,996.00
2018-09-30T08:03:33.084Z,995.98
2018-09-30T08:04:33.165Z,995.94
2018-09-30T08:05:33.263Z,995.88
2018-09-30T08:06:33.462Z,995.85
2018-09-30T08:07:33.442Z,995.84
2018-09-30T08:08:33.531Z,995.82
2018-09-30T08:09:33.623Z,995.83
2018-09-30T08:10:33.712Z,995.79
2018-09-30T08:11:33.804Z,995.76
2018-09-30T08:12:33.899Z,995.71
2018-09-30T08:13:33.986Z,995.75
2018-09-30T08:14:34.078Z,995.71
2018-09-30T08:15:34.168Z,995.69
2018-09-30T08:16:34.337Z,995.71
2018-09-30T08:17:34.342Z,995.69
2018-09-30T08:18:34.440Z,995.72
2018-09-30T08:19:34.528Z,995.69
2018-09-30T08:20:34.618Z,995.70
2018-09-30T08:21:34.711Z,995.71
2018-09-30T08:22:34.788Z,995.69
2018-09-30T08:23:34.878Z,995.65
2018-09-30T08:24:35.007Z,995.59
2018-09-30T08:25:35.058Z,995.64
2018-09-30T08:26:35.145Z,995.59
2018-09-30T08:27:35.231Z,995.65
2018-09-30T08:28:35.321Z,995.64
2018-09-30T08:29:35.415Z,995.56
2018-09-30T08:30:35.513Z,995.61
2018-09-30T08:31:35.590Z,995.60
2018-09-30T08:32:35.682Z,995.58
2018-09-30T08:33:35.772Z,995.59
2018-09-30T08:34:35.864Z,995.60
2018-09-30T08:35:35.961Z,995.59
2018-09-30T08:36:36.048Z,995.59
2018-09-30T08:37:36.139Z,995.59
2018-09-30T08:38:36.229Z,995.57
2018-09-30T08:39:36.341Z,995.56
2018-09-30T08:40:36.410Z,995.53
2018-09-30T08:41:36.500Z,995.54
2018-09-30T08:42:36.590Z,995.52
2018-09-30T08:43:36.699Z,995.57
2018-09-30T08:44:36.770Z,995.51
2018-09-30T08:45:36.861Z,995.51
2018-09-30T08:46:36.990Z,995.48
2018-09-30T08:47:37.077Z,995.50
2018-09-30T08:48:37.140Z,995.51
2018-09-30T08:49:37.218Z,995.50
2018-09-30T08:50:37.305Z,995.48
2018-09-30T08:51:37.396Z,995.47
2018-09-30T08:52:45.138Z,995.47
2018-09-30T08:53:37.605Z,995.47
2018-09-30T08:54:37.714Z,995.44
2018-09-30T08:55:37.825Z,995.41
2018-09-30T08:56:37.896Z,995.40
2018-09-30T08:57:37.986Z,995.34
2018-09-30T08:58:38.075Z,995.33
2018-09-30T08:59:38.166Z,995.32
2018-09-30T09:00:38.257Z,995.24
2018-09-30T09:01:38.361Z,995.26
2018-09-30T09:02:38.432Z,995.28
2018-09-30T09:03:38.522Z,995.26
2018-09-30T09:04:38.612Z,995.20
2018-09-30T09:05:38.703Z,995.23
2018-09-30T09:06:38.796Z,995.20
2018-09-30T09:07:38.886Z,995.19
2018-09-30T09:08:38.978Z,995.21
2018-09-30T09:09:39.124Z,995.22
2018-09-30T09:10:46.295Z,995.23
2018-09-30T09:11:39.264Z,995.21
2018-09-30T09:12:39.356Z,995.19
2018-09-30T09:13:39.451Z,995.16
2018-09-30T09:14:39.541Z,995.19
2018-09-30T09:15:39.630Z,995.13
2018-09-30T09:16:39.721Z,995.13
2018-09-30T09:17:39.814Z,995.15
2018-09-30T09:18:39.903Z,995.08
2018-09-30T09:19:39.991Z,995.12
2018-09-30T09:20:40.101Z,995.12
2018-09-30T09:21:40.172Z,995.10
2018-09-30T09:22:40.280Z,995.11
2018-09-30T09:23:40.364Z,995.11
2018-09-30T09:24:40.458Z,995.09
2018-09-30T09:25:40.556Z,995.10
2018-09-30T09:26:40.609Z,995.07
2018-09-30T09:27:40.700Z,995.07
2018-09-30T09:28:41.124Z,994.98
2018-09-30T09:29:40.937Z,995.05
2018-09-30T09:30:40.900Z,995.03
2018-09-30T09:31:41.016Z,995.07
2018-09-30T09:32:41.077Z,995.02
2018-09-30T09:33:41.166Z,995.06
2018-09-30T09:34:41.253Z,995.08
2018-09-30T09:35:41.354Z,995.07
2018-09-30T09:36:41.438Z,995.06
2018-09-30T09:37:41.536Z,995.14
2018-09-30T09:38:41.620Z,995.12
2018-09-30T09:39:41.714Z,995.09
2018-09-30T09:40:41.809Z,995.12
2018-09-30T09:41:41.898Z,995.10
2018-09-30T09:42:41.992Z,995.09
2018-09-30T09:43:42.084Z,995.06
2018-09-30T09:44:42.197Z,995.09
2018-09-30T09:45:42.293Z,995.06
2018-09-30T09:46:42.382Z,995.02
2018-09-30T09:47:42.477Z,994.98
2018-09-30T09:48:42.568Z,994.97
2018-09-30T09:49:42.661Z,994.99
2018-09-30T09:50:42.752Z,994.96
2018-09-30T09:51:42.838Z,994.97
2018-09-30T09:52:43.027Z,994.97
2018-09-30T09:53:43.029Z,994.98
2018-09-30T09:54:43.123Z,995.01
2018-09-30T09:55:43.220Z,995.00
2018-09-30T09:56:43.306Z,995.02
2018-09-30T09:57:43.423Z,995.03
2018-09-30T09:58:43.520Z,995.03
2018-09-30T09:59:43.615Z,995.02
2018-09-30T10:00:43.704Z,995.00
2018-09-30T10:01:43.797Z,994.98
2018-09-30T10:02:43.893Z,994.94
2018-09-30T10:03:43.986Z,994.90
2018-09-30T10:04:44.083Z,994.91
2018-09-30T10:05:44.175Z,994.93
2018-09-30T10:06:44.266Z,994.91
2018-09-30T10:07:44.362Z,994.85
2018-09-30T10:08:44.456Z,994.89
2018-09-30T10:09:44.565Z,994.86
2018-09-30T10:10:44.645Z,994.87
2018-09-30T10:11:44.738Z,994.81
2018-09-30T10:12:44.831Z,994.78
2018-09-30T10:13:44.924Z,994.74
2018-09-30T10:14:45.017Z,994.73
2018-09-30T10:15:45.115Z,994.72
2018-09-30T10:16:45.207Z,994.75
2018-09-30T10:17:45.298Z,994.72
2018-09-30T10:18:45.381Z,994.73
2018-09-30T10:19:45.477Z,994.75
2018-09-30T10:20:45.569Z,994.73
2018-09-30T10:21:45.667Z,994.71
2018-09-30T10:22:45.761Z,994.67
2018-09-30T10:23:45.864Z,994.67
2018-09-30T10:24:45.958Z,994.67
2018-09-30T10:25:46.053Z,994.57
2018-09-30T10:26:46.144Z,994.57
2018-09-30T10:27:46.250Z,994.55
2018-09-30T10:28:46.369Z,994.46
2018-09-30T10:29:46.422Z,994.45
2018-09-30T10:30:46.508Z,994.41
2018-09-30T10:31:46.607Z,994.44
2018-09-30T10:32:46.692Z,994.42
2018-09-30T10:33:46.791Z,994.45
2018-09-30T10:34:46.885Z,994.46
2018-09-30T10:35:46.979Z,994.42
2018-09-30T10:36:47.087Z,994.46
2018-09-30T10:37:47.182Z,994.37
2018-09-30T10:38:47.339Z,994.31
2018-09-30T10:39:47.369Z,994.33
2018-09-30T10:40:47.462Z,994.27
2018-09-30T10:41:47.558Z,994.26
2018-09-30T10:42:47.651Z,994.22
2018-09-30T10:43:47.744Z,994.16
2018-09-30T10:44:47.839Z,994.15
2018-09-30T10:45:47.932Z,994.09
2018-09-30T10:46:48.024Z,994.10
2018-09-30T10:47:48.118Z,994.09
2018-09-30T10:48:48.214Z,994.09
2018-09-30T10:49:48.310Z,994.07
2018-09-30T10:50:48.406Z,994.06
2018-09-30T10:51:48.503Z,994.08
2018-09-30T10:52:48.597Z,994.08
2018-09-30T10:53:48.694Z,994.05
2018-09-30T10:54:48.786Z,994.04
2018-09-30T10:55:48.882Z,993.98
2018-09-30T10:56:49.024Z,993.93
2018-09-30T10:57:49.060Z,993.93
2018-09-30T10:58:49.156Z,993.97
2018-09-30T10:59:49.251Z,993.97
2018-09-30T11:00:49.345Z,993.95
2018-09-30T11:01:49.444Z,993.92
2018-09-30T11:02:49.537Z,993.93
2018-09-30T11:03:49.653Z,993.88
2018-09-30T11:04:49.749Z,993.88
2018-09-30T11:05:49.842Z,993.87
2018-09-30T11:06:49.936Z,993.86
2018-09-30T11:07:50.037Z,993.88
2018-09-30T11:08:50.131Z,993.85
2018-09-30T11:09:50.242Z,993.89
2018-09-30T11:10:50.320Z,993.82
2018-09-30T11:11:50.414Z,993.80
2018-09-30T11:12:50.516Z,993.75
2018-09-30T11:13:50.607Z,993.78
2018-09-30T11:14:50.704Z,993.77
2018-09-30T11:15:50.798Z,993.78
2018-09-30T11:16:50.889Z,993.82
2018-09-30T11:17:50.986Z,993.77
2018-09-30T11:18:51.087Z,993.74
2018-09-30T11:19:51.177Z,993.71
2018-09-30T11:20:51.272Z,993.69
2018-09-30T11:21:51.367Z,993.68
2018-09-30T11:22:51.487Z,993.63
2018-09-30T11:23:51.588Z,993.64
2018-09-30T11:24:51.679Z,993.63
2018-09-30T11:25:51.777Z,993.58
2018-09-30T11:26:51.870Z,993.58
2018-09-30T11:27:51.964Z,993.53
2018-09-30T11:28:52.060Z,993.52
2018-09-30T11:29:52.153Z,993.50
2018-09-30T11:30:52.248Z,993.51
2018-09-30T11:31:52.413Z,993.48
2018-09-30T11:32:52.440Z,993.47
2018-09-30T11:33:52.536Z,993.42
2018-09-30T11:34:52.632Z,993.41
2018-09-30T11:35:52.724Z,993.38
2018-09-30T11:36:52.819Z,993.38
2018-09-30T11:37:52.918Z,993.34
2018-09-30T11:38:53.011Z,993.37
2018-09-30T11:39:53.110Z,993.34
2018-09-30T11:40:53.205Z,993.28
2018-09-30T11:41:53.302Z,993.22
2018-09-30T11:42:53.402Z,993.23
2018-09-30T11:43:53.494Z,993.21
2018-09-30T11:44:53.590Z,993.23
2018-09-30T11:45:53.684Z,993.19
2018-09-30T11:46:53.779Z,993.18
2018-09-30T11:47:53.888Z,993.12
2018-09-30T11:48:53.968Z,993.10
2018-09-30T11:49:54.058Z,993.07
2018-09-30T11:50:54.153Z,993.06
2018-09-30T11:51:54.246Z,993.03
2018-09-30T11:52:54.338Z,992.98
2018-09-30T11:53:54.442Z,992.97
2018-09-30T11:54:54.535Z,992.97
2018-09-30T11:55:54.631Z,992.98
2018-09-30T11:56:54.728Z,992.98
2018-09-30T11:57:54.824Z,992.99
2018-09-30T11:58:54.921Z,992.96
2018-09-30T11:59:55.015Z,992.97
2018-09-30T12:00:55.111Z,992.97
2018-09-30T12:01:55.207Z,992.91
2018-09-30T12:02:55.294Z,992.88
2018-09-30T12:03:55.391Z,992.87
2018-09-30T12:04:55.484Z,992.84
2018-09-30T12:05:55.579Z,992.78
2018-09-30T12:06:55.677Z,992.79
2018-09-30T12:07:55.773Z,992.75
2018-09-30T12:08:55.867Z,992.77
2018-09-30T12:09:55.961Z,992.73
2018-09-30T12:10:56.058Z,992.73
2018-09-30T12:11:56.154Z,992.69
2018-09-30T12:12:56.248Z,992.66
2018-09-30T12:13:56.344Z,992.64
2018-09-30T12:14:56.437Z,992.58
2018-09-30T12:15:56.535Z,992.55
2018-09-30T12:16:56.629Z,992.50
2018-09-30T12:17:56.724Z,992.52
2018-09-30T12:18:56.821Z,992.49
2018-09-30T12:19:56.921Z,992.48
2018-09-30T12:20:57.018Z,992.45
2018-09-30T12:21:57.115Z,992.46
2018-09-30T12:22:57.207Z,992.47
2018-09-30T12:23:57.303Z,992.44
2018-09-30T12:24:57.398Z,992.38
2018-09-30T12:25:57.537Z,992.42
2018-09-30T12:26:57.590Z,992.35
2018-09-30T12:27:57.686Z,992.35
2018-09-30T12:28:57.802Z,992.34
2018-09-30T12:29:57.929Z,992.31